createdAt,value
2023-01-13T00:01:17.283Z,3.10
2023-01-13T00:03:44.590Z,3.13
2023-01-13T00:06:14.640Z,3.17
2023-01-13T00:08:41.638Z,3.16
2023-01-13T00:11:09.821Z,3.14
2023-01-13T00:13:38.110Z,3.12
2023-01-13T00:16:07.609Z,3.06
2023-01-13T00:18:34.765Z,3.13
2023-01-13T00:21:18.202Z,3.08
2023-01-13T00:23:46.178Z,3.07
2023-01-13T00:26:16.092Z,3.01
2023-01-13T00:28:43.042Z,2.98
2023-01-13T00:31:15.957Z,3.00
2023-01-13T00:33:43.138Z,2.92
2023-01-13T00:36:13.038Z,2.88
2023-01-13T00:38:40.635Z,2.89
2023-01-13T00:41:11.107Z,2.89
2023-01-13T00:43:38.362Z,2.88
2023-01-13T00:46:07.654Z,2.92
2023-01-13T00:48:35.194Z,2.95
2023-01-13T00:51:11.263Z,2.87
2023-01-13T00:53:40.467Z,2.87
2023-01-13T00:56:18.082Z,2.91
2023-01-13T00:58:46.031Z,2.97
2023-01-13T01:01:21.964Z,2.94
2023-01-13T01:03:52.678Z,2.85
2023-01-13T01:06:26.021Z,2.84
2023-01-13T01:08:54.055Z,2.82
2023-01-13T01:11:26.353Z,2.87
2023-01-13T01:13:55.355Z,2.94
2023-01-13T01:16:23.852Z,2.91
2023-01-13T01:18:52.205Z,2.94
2023-01-13T01:21:20.076Z,2.88
2023-01-13T01:23:46.958Z,2.88
2023-01-13T01:26:17.375Z,2.95
2023-01-13T01:28:44.994Z,2.88
2023-01-13T01:31:17.756Z,2.88
2023-01-13T01:33:46.503Z,2.91
2023-01-13T01:36:14.587Z,2.86
2023-01-13T01:38:41.605Z,2.80
2023-01-13T01:41:10.027Z,2.78
2023-01-13T01:44:02.595Z,2.73
2023-01-13T01:46:44.110Z,2.70
2023-01-13T01:49:21.293Z,2.67
2023-01-13T01:51:57.083Z,2.64
2023-01-13T01:54:28.642Z,2.58
2023-01-13T01:56:55.853Z,2.58
2023-01-13T01:59:29.810Z,2.60
2023-01-13T02:01:56.675Z,2.55
2023-01-13T02:04:29.585Z,2.49
2023-01-13T02:06:57.464Z,2.59
2023-01-13T02:09:26.267Z,2.52
2023-01-13T02:12:11.547Z,2.48
2023-01-13T02:14:39.188Z,2.34
2023-01-13T02:17:21.365Z,2.35
2023-01-13T02:20:15.629Z,2.37
2023-01-13T02:23:02.410Z,2.30
2023-01-13T02:25:50.410Z,2.39
2023-01-13T02:28:20.334Z,2.25
2023-01-13T02:31:17.684Z,2.19
2023-01-13T02:33:50.310Z,2.22
2023-01-13T02:36:32.508Z,2.14
2023-01-13T02:39:19.079Z,2.19
2023-01-13T02:42:18.095Z,2.06
2023-01-13T02:44:58.670Z,2.02
2023-01-13T02:47:26.937Z,1.99
2023-01-13T02:49:59.075Z,1.98
2023-01-13T02:52:36.028Z,2.00
2023-01-13T02:55:13.072Z,2.09
2023-01-13T02:57:41.853Z,1.94
2023-01-13T03:00:11.489Z,1.94
2023-01-13T03:02:38.836Z,1.97
2023-01-13T03:05:06.016Z,1.98
2023-01-13T03:08:00.501Z,1.98
2023-01-13T03:10:27.230Z,2.01
2023-01-13T03:12:59.228Z,2.04
2023-01-13T03:15:44.861Z,2.01
2023-01-13T03:18:26.829Z,2.02
2023-01-13T03:21:29.512Z,2.00
2023-01-13T03:24:20.417Z,2.08
2023-01-13T03:26:52.830Z,2.04
2023-01-13T03:29:40.903Z,2.10
2023-01-13T03:32:20.338Z,2.11
2023-01-13T03:34:55.280Z,2.07
2023-01-13T03:37:30.625Z,2.10
2023-01-13T03:40:27.206Z,2.14
2023-01-13T03:43:20.988Z,2.13
2023-01-13T03:45:55.587Z,2.13
2023-01-13T03:48:26.584Z,2.21
2023-01-13T03:51:00.123Z,2.23
2023-01-13T03:53:43.885Z,2.20
2023-01-13T03:56:25.630Z,2.28
2023-01-13T03:58:54.508Z,2.27
2023-01-13T04:01:56.376Z,2.32
2023-01-13T04:04:33.377Z,2.47
2023-01-13T04:07:22.022Z,2.49
2023-01-13T04:09:51.006Z,2.47
2023-01-13T04:12:25.488Z,2.52
2023-01-13T04:14:53.955Z,2.48
2023-01-13T04:17:21.362Z,2.45
2023-01-13T04:19:48.175Z,2.39
2023-01-13T04:22:14.913Z,2.39
2023-01-13T04:24:41.742Z,2.37
2023-01-13T04:27:08.587Z,2.37
2023-01-13T04:29:35.307Z,2.39
2023-01-13T04:32:02.136Z,2.39
2023-01-13T04:34:28.919Z,2.36
2023-01-13T04:36:55.791Z,2.37
2023-01-13T04:39:22.542Z,2.35
2023-01-13T04:41:58.197Z,2.27
2023-01-13T04:44:26.310Z,2.25
2023-01-13T04:46:53.594Z,2.24
2023-01-13T04:49:20.590Z,2.23
2023-01-13T04:51:47.697Z,2.19
2023-01-13T04:54:16.278Z,2.16
2023-01-13T04:56:43.120Z,2.16
2023-01-13T04:59:13.127Z,2.20
2023-01-13T05:01:40.186Z,2.17
2023-01-13T05:04:07.896Z,2.13
2023-01-13T05:06:34.852Z,2.04
2023-01-13T05:09:01.671Z,2.09
2023-01-13T05:11:47.059Z,2.01
2023-01-13T05:14:32.295Z,2.03
2023-01-13T05:17:02.005Z,1.98
2023-01-13T05:19:34.066Z,1.98
2023-01-13T05:22:20.794Z,2.02
2023-01-13T05:25:06.442Z,2.02
2023-01-13T05:27:33.845Z,1.94
2023-01-13T05:30:01.046Z,1.97
2023-01-13T05:32:28.348Z,1.99
2023-01-13T05:34:55.960Z,1.89
2023-01-13T05:37:23.634Z,1.96
2023-01-13T05:40:08.952Z,1.95
2023-01-13T05:42:54.272Z,1.90
2023-01-13T05:45:21.487Z,1.92
2023-01-13T05:47:48.433Z,1.86
2023-01-13T05:50:16.155Z,1.91
2023-01-13T05:52:43.604Z,1.88
2023-01-13T05:55:11.771Z,1.94
2023-01-13T05:57:38.535Z,1.92
2023-01-13T06:00:05.929Z,1.95
2023-01-13T06:02:38.425Z,1.92
2023-01-13T06:05:05.471Z,1.97
2023-01-13T06:07:32.181Z,1.87
2023-01-13T06:09:59.471Z,1.90
2023-01-13T06:12:26.278Z,1.97
2023-01-13T06:14:53.139Z,2.00
2023-01-13T06:17:19.840Z,1.91
2023-01-13T06:19:46.683Z,1.87
2023-01-13T06:22:17.367Z,1.90
2023-01-13T06:24:47.258Z,1.88
2023-01-13T06:27:15.472Z,1.81
2023-01-13T06:29:42.463Z,1.85
2023-01-13T06:32:17.318Z,1.82
2023-01-13T06:34:51.088Z,1.84
2023-01-13T06:37:21.677Z,1.82
2023-01-13T06:39:49.414Z,1.80
2023-01-13T06:42:34.946Z,1.91
2023-01-13T06:45:01.973Z,1.87
2023-01-13T06:47:28.844Z,1.86
2023-01-13T06:49:55.746Z,1.78
2023-01-13T06:52:23.569Z,1.74
2023-01-13T06:54:50.407Z,1.81
2023-01-13T06:57:17.203Z,1.84
2023-01-13T06:59:44.101Z,1.85
2023-01-13T07:02:10.976Z,1.92
2023-01-13T07:04:37.817Z,1.87
2023-01-13T07:07:04.544Z,1.82
2023-01-13T07:09:31.333Z,1.77
2023-01-13T07:11:58.096Z,1.69
2023-01-13T07:14:43.397Z,1.65
2023-01-13T07:17:10.277Z,1.62
2023-01-13T07:19:37.134Z,1.69
2023-01-13T07:22:04.022Z,1.66
2023-01-13T07:24:30.908Z,1.67
2023-01-13T07:26:57.949Z,1.74
2023-01-13T07:29:24.797Z,1.77
2023-01-13T07:31:51.596Z,1.61
2023-01-13T07:34:18.543Z,1.74
2023-01-13T07:36:45.293Z,1.76
2023-01-13T07:39:12.176Z,1.82
2023-01-13T07:41:57.574Z,2.02
2023-01-13T07:44:24.432Z,2.17
2023-01-13T07:46:51.187Z,2.22
2023-01-13T07:49:18.012Z,2.36
2023-01-13T07:51:44.720Z,2.59
2023-01-13T07:54:11.624Z,2.84
2023-01-13T07:56:38.353Z,3.13
2023-01-13T07:59:05.225Z,3.34
2023-01-13T08:01:32.280Z,3.55
2023-01-13T08:03:59.236Z,3.75
2023-01-13T08:06:26.468Z,3.81
2023-01-13T08:08:53.263Z,3.94
2023-01-13T08:11:23.340Z,4.13
2023-01-13T08:13:50.630Z,4.30
2023-01-13T08:16:17.553Z,4.36
2023-01-13T08:18:44.385Z,4.43
2023-01-13T08:21:14.986Z,4.39
2023-01-13T08:23:43.756Z,4.38
2023-01-13T08:26:13.653Z,4.26
2023-01-13T08:28:41.013Z,4.24
2023-01-13T08:31:11.563Z,4.14
2023-01-13T08:33:39.098Z,3.98
2023-01-13T08:36:07.882Z,3.85
2023-01-13T08:38:35.215Z,3.79
2023-01-13T08:41:08.150Z,3.80
2023-01-13T08:43:35.165Z,3.75
2023-01-13T08:46:04.844Z,3.78
2023-01-13T08:48:31.949Z,3.67
2023-01-13T08:51:07.789Z,3.62
2023-01-13T08:53:35.288Z,3.62
2023-01-13T08:56:02.146Z,3.73
2023-01-13T08:58:29.048Z,3.71
2023-01-13T09:00:55.956Z,3.77
2023-01-13T09:03:22.908Z,3.66
2023-01-13T09:05:49.625Z,3.65
2023-01-13T09:08:16.372Z,3.72
2023-01-13T09:10:43.267Z,3.71
2023-01-13T09:13:13.690Z,3.67
2023-01-13T09:15:45.994Z,3.64
2023-01-13T09:18:13.083Z,3.70
2023-01-13T09:20:40.230Z,3.76
2023-01-13T09:23:10.063Z,3.83
2023-01-13T09:25:37.757Z,3.84
2023-01-13T09:28:08.599Z,3.79
2023-01-13T09:30:36.810Z,3.82
2023-01-13T09:33:22.109Z,3.90
2023-01-13T09:35:48.897Z,3.84
2023-01-13T09:38:15.683Z,3.81
2023-01-13T09:40:44.010Z,3.81
2023-01-13T09:43:53.879Z,3.91
2023-01-13T09:46:43.140Z,4.11
2023-01-13T09:49:22.959Z,4.09
2023-01-13T09:51:59.097Z,4.11
2023-01-13T09:54:34.543Z,4.09
2023-01-13T09:57:01.565Z,4.14
2023-01-13T09:59:34.659Z,4.28
2023-01-13T10:02:30.935Z,4.33
2023-01-13T10:05:03.979Z,4.44
2023-01-13T10:07:34.549Z,4.52
2023-01-13T10:10:03.438Z,4.50
2023-01-13T10:12:50.233Z,4.51
2023-01-13T10:15:21.483Z,4.68
2023-01-13T10:17:56.540Z,4.74
2023-01-13T10:20:34.883Z,4.78
2023-01-13T10:23:46.951Z,4.88
2023-01-13T10:26:34.451Z,4.93
2023-01-13T10:29:01.265Z,4.94
2023-01-13T10:31:28.201Z,4.95
2023-01-13T10:34:00.442Z,4.99
2023-01-13T10:36:27.696Z,5.01
2023-01-13T10:39:07.127Z,5.12
2023-01-13T10:41:36.203Z,5.22
2023-01-13T10:44:17.150Z,5.32
2023-01-13T10:46:55.662Z,5.41
2023-01-13T10:49:32.935Z,5.53
2023-01-13T10:52:02.019Z,5.60
2023-01-13T10:54:29.716Z,5.72
2023-01-13T10:57:23.011Z,5.85
2023-01-13T10:59:51.099Z,6.04
2023-01-13T11:02:33.356Z,6.23
2023-01-13T11:05:24.224Z,6.54
2023-01-13T11:07:55.047Z,6.85
2023-01-13T11:10:27.604Z,7.17
2023-01-13T11:13:31.326Z,7.57
2023-01-13T11:16:03.506Z,7.78
2023-01-13T11:18:52.124Z,7.90
2023-01-13T11:21:27.916Z,8.15
2023-01-13T11:24:18.804Z,8.35
2023-01-13T11:26:59.383Z,8.74
2023-01-13T11:29:33.310Z,9.54
2023-01-13T11:32:20.168Z,11.46
2023-01-13T11:34:54.534Z,12.37
2023-01-13T11:37:40.664Z,10.96
2023-01-13T11:40:21.478Z,10.26
2023-01-13T11:43:11.438Z,9.47
2023-01-13T11:45:44.111Z,8.98
2023-01-13T11:48:17.819Z,8.66
2023-01-13T11:50:56.189Z,8.35
2023-01-13T11:53:47.404Z,8.03
2023-01-13T11:56:39.047Z,7.66
2023-01-13T11:59:24.310Z,7.61
2023-01-13T12:02:22.272Z,8.78
2023-01-13T12:05:10.889Z,10.08
2023-01-13T12:08:15.271Z,10.25
2023-01-13T12:10:54.190Z,9.87
2023-01-13T12:13:46.460Z,9.72
2023-01-13T12:16:28.639Z,9.49
2023-01-13T12:19:20.067Z,9.24
2023-01-13T12:21:46.870Z,8.86
2023-01-13T12:24:22.890Z,8.65
2023-01-13T12:27:01.922Z,8.45
2023-01-13T12:29:33.475Z,8.25
2023-01-13T12:32:03.942Z,8.09
2023-01-13T12:34:47.411Z,7.84
2023-01-13T12:37:17.390Z,7.70
2023-01-13T12:40:01.674Z,7.60
2023-01-13T12:43:00.740Z,7.48
2023-01-13T12:45:30.315Z,7.44
2023-01-13T12:47:58.437Z,7.44
2023-01-13T12:50:25.104Z,7.43
2023-01-13T12:52:53.546Z,7.35
2023-01-13T12:55:25.173Z,7.24
2023-01-13T12:57:55.973Z,7.12
2023-01-13T13:00:23.386Z,7.13
2023-01-13T13:03:12.267Z,7.09
2023-01-13T13:05:58.080Z,7.05
2023-01-13T13:08:47.220Z,7.06
2023-01-13T13:11:32.703Z,6.99
2023-01-13T13:14:01.420Z,7.01
2023-01-13T13:16:31.011Z,7.01
2023-01-13T13:19:22.818Z,7.00
2023-01-13T13:22:16.662Z,6.99
2023-01-13T13:24:49.743Z,6.92
2023-01-13T13:27:35.880Z,6.78
2023-01-13T13:30:30.316Z,6.74
2023-01-13T13:33:12.028Z,6.72
2023-01-13T13:36:02.928Z,6.61
2023-01-13T13:39:25.005Z,6.66
2023-01-13T13:42:17.034Z,6.58
2023-01-13T13:45:06.655Z,6.61
2023-01-13T13:47:37.932Z,6.59
2023-01-13T13:50:14.479Z,6.53
2023-01-13T13:53:05.499Z,6.53
2023-01-13T13:55:33.019Z,6.60
2023-01-13T13:58:01.667Z,6.53
2023-01-13T14:00:32.122Z,6.44
2023-01-13T14:03:02.156Z,6.39
2023-01-13T14:05:30.120Z,6.39
2023-01-13T14:08:09.643Z,6.40
2023-01-13T14:10:38.871Z,6.36
2023-01-13T14:13:17.950Z,6.39
2023-01-13T14:15:46.236Z,6.36
2023-01-13T14:18:17.484Z,6.41
2023-01-13T14:20:52.100Z,6.37
2023-01-13T14:23:22.691Z,6.34
2023-01-13T14:25:50.975Z,6.26
2023-01-13T14:28:30.202Z,6.19
2023-01-13T14:30:57.512Z,6.13
2023-01-13T14:33:49.355Z,6.21
2023-01-13T14:36:20.887Z,6.14
2023-01-13T14:39:02.898Z,6.09
2023-01-13T14:41:50.949Z,6.04
2023-01-13T14:44:48.858Z,5.99
2023-01-13T14:47:28.185Z,5.92
2023-01-13T14:50:11.649Z,5.94
2023-01-13T14:52:57.031Z,5.91
2023-01-13T14:55:32.644Z,5.92
2023-01-13T14:58:21.528Z,5.86
2023-01-13T15:00:49.722Z,5.81
2023-01-13T15:03:18.122Z,5.79
2023-01-13T15:05:52.853Z,5.78
2023-01-13T15:08:28.116Z,5.74
2023-01-13T15:11:01.396Z,5.76
2023-01-13T15:13:47.017Z,5.73
2023-01-13T15:16:25.421Z,5.64
2023-01-13T15:18:53.807Z,5.62
2023-01-13T15:21:21.032Z,5.59
2023-01-13T15:23:47.930Z,5.60
2023-01-13T15:26:17.875Z,5.53
2023-01-13T15:28:44.579Z,5.52
2023-01-13T15:31:11.476Z,5.51
2023-01-13T15:33:38.575Z,5.47
2023-01-13T15:36:11.381Z,5.44
2023-01-13T15:38:38.332Z,5.39
2023-01-13T15:41:05.277Z,5.40
2023-01-13T15:43:50.724Z,5.39
2023-01-13T15:46:37.086Z,5.37
2023-01-13T15:49:18.346Z,5.31
2023-01-13T15:51:45.170Z,5.30
2023-01-13T15:54:12.729Z,5.32
2023-01-13T15:56:39.683Z,5.30
2023-01-13T15:59:13.883Z,5.31
2023-01-13T16:01:40.764Z,5.30
2023-01-13T16:04:09.554Z,5.27
2023-01-13T16:06:37.273Z,5.27
2023-01-13T16:09:05.350Z,5.27
2023-01-13T16:11:32.213Z,5.27
2023-01-13T16:13:59.377Z,5.28
2023-01-13T16:16:28.472Z,5.24
2023-01-13T16:18:56.320Z,5.23
2023-01-13T16:21:23.721Z,5.18
2023-01-13T16:23:51.518Z,5.13
2023-01-13T16:26:24.567Z,5.17
2023-01-13T16:28:53.116Z,5.14
2023-01-13T16:31:24.365Z,5.14
2023-01-13T16:33:52.200Z,5.12
2023-01-13T16:36:20.376Z,5.18
2023-01-13T16:38:48.507Z,5.28
2023-01-13T16:41:15.608Z,5.24
2023-01-13T16:43:42.857Z,5.13
2023-01-13T16:46:17.240Z,5.14
2023-01-13T16:48:44.396Z,5.07
2023-01-13T16:51:11.140Z,5.07
2023-01-13T16:53:38.070Z,5.08
2023-01-13T16:56:17.458Z,5.08
2023-01-13T16:58:44.307Z,4.95
2023-01-13T17:01:29.569Z,4.91
2023-01-13T17:03:58.189Z,4.92
2023-01-13T17:06:31.754Z,4.89
2023-01-13T17:09:04.879Z,4.84
2023-01-13T17:11:32.229Z,4.84
2023-01-13T17:13:59.276Z,4.79
2023-01-13T17:16:26.603Z,4.82
2023-01-13T17:18:54.175Z,4.85
2023-01-13T17:21:20.882Z,4.86
2023-01-13T17:23:47.647Z,4.85
2023-01-13T17:26:38.654Z,4.82
2023-01-13T17:29:08.777Z,4.83
2023-01-13T17:31:36.176Z,4.78
2023-01-13T17:34:04.473Z,4.78
2023-01-13T17:36:31.945Z,4.73
2023-01-13T17:38:58.974Z,4.79
2023-01-13T17:41:26.300Z,4.84
2023-01-13T17:43:53.826Z,4.87
2023-01-13T17:46:22.912Z,4.85
2023-01-13T17:48:53.701Z,4.87
2023-01-13T17:51:22.652Z,4.82
2023-01-13T17:53:49.675Z,4.79
2023-01-13T17:56:17.190Z,4.77
2023-01-13T17:58:45.480Z,4.76
2023-01-13T18:01:20.262Z,4.75
2023-01-13T18:03:47.735Z,4.75
2023-01-13T18:06:21.662Z,4.73
2023-01-13T18:08:48.804Z,4.65
2023-01-13T18:11:20.029Z,4.66
2023-01-13T18:13:54.844Z,4.68
2023-01-13T18:16:22.179Z,4.65
2023-01-13T18:18:51.876Z,4.60
2023-01-13T18:21:45.172Z,4.62
2023-01-13T18:24:32.592Z,4.65
2023-01-13T18:27:18.084Z,4.79
2023-01-13T18:29:50.021Z,4.79
2023-01-13T18:32:16.976Z,4.78
2023-01-13T18:34:44.025Z,4.72
2023-01-13T18:37:13.390Z,4.65
2023-01-13T18:39:40.182Z,4.61
2023-01-13T18:42:26.612Z,4.65
2023-01-13T18:44:56.080Z,4.61
2023-01-13T18:47:28.750Z,4.70
2023-01-13T18:49:56.937Z,4.70
2023-01-13T18:52:24.832Z,4.70
2023-01-13T18:54:51.980Z,4.66
2023-01-13T18:57:18.780Z,4.62
2023-01-13T18:59:45.737Z,4.51
2023-01-13T19:02:20.682Z,4.53
2023-01-13T19:04:47.929Z,4.57
2023-01-13T19:07:22.305Z,4.60
2023-01-13T19:09:50.155Z,4.56
2023-01-13T19:12:25.898Z,4.55
2023-01-13T19:14:57.434Z,4.59
2023-01-13T19:17:26.621Z,4.58
2023-01-13T19:19:55.711Z,4.57
2023-01-13T19:22:33.522Z,4.64
2023-01-13T19:25:02.122Z,4.66
2023-01-13T19:27:29.282Z,4.67
2023-01-13T19:29:58.762Z,4.57
2023-01-13T19:32:26.175Z,4.56
2023-01-13T19:34:55.036Z,4.48
2023-01-13T19:37:22.059Z,4.42
2023-01-13T19:39:48.963Z,4.38
2023-01-13T19:42:34.115Z,4.39
2023-01-13T19:45:19.422Z,4.37
2023-01-13T19:47:46.472Z,4.51
2023-01-13T19:50:14.031Z,4.48
2023-01-13T19:52:42.338Z,4.50
2023-01-13T19:55:10.940Z,4.53
2023-01-13T19:57:39.529Z,4.58
2023-01-13T20:00:07.914Z,4.55
2023-01-13T20:02:44.919Z,4.49
2023-01-13T20:05:12.856Z,4.42
2023-01-13T20:07:39.856Z,4.38
2023-01-13T20:10:07.405Z,4.34
2023-01-13T20:12:34.162Z,4.33
2023-01-13T20:15:00.935Z,4.31
2023-01-13T20:17:27.787Z,4.31
2023-01-13T20:19:54.829Z,4.41
2023-01-13T20:22:21.602Z,4.38
2023-01-13T20:24:52.155Z,4.37
2023-01-13T20:27:19.099Z,4.39
2023-01-13T20:29:45.860Z,4.41
2023-01-13T20:32:12.654Z,4.47
2023-01-13T20:34:39.417Z,4.44
2023-01-13T20:37:06.314Z,4.41
2023-01-13T20:39:34.034Z,4.44
2023-01-13T20:42:19.034Z,4.41
2023-01-13T20:44:46.817Z,4.42
2023-01-13T20:47:14.559Z,4.41
2023-01-13T20:49:41.553Z,4.38
2023-01-13T20:52:11.185Z,4.41
2023-01-13T20:54:40.245Z,4.43
2023-01-13T20:57:09.969Z,4.40
2023-01-13T20:59:37.842Z,4.45
2023-01-13T21:02:07.124Z,4.46
2023-01-13T21:04:34.280Z,4.47
2023-01-13T21:07:00.996Z,4.48
2023-01-13T21:09:27.897Z,4.49
2023-01-13T21:12:13.196Z,4.56
2023-01-13T21:14:58.632Z,4.59
2023-01-13T21:17:44.165Z,4.59
2023-01-13T21:20:13.400Z,4.56
2023-01-13T21:22:43.829Z,4.61
2023-01-13T21:25:12.219Z,4.61
2023-01-13T21:27:39.386Z,4.59
2023-01-13T21:30:06.726Z,4.58
2023-01-13T21:32:33.544Z,4.65
2023-01-13T21:35:01.898Z,4.60
2023-01-13T21:37:28.735Z,4.53
2023-01-13T21:39:55.713Z,4.54
2023-01-13T21:42:40.968Z,4.57
2023-01-13T21:45:29.356Z,4.56
2023-01-13T21:47:56.644Z,4.60
2023-01-13T21:50:28.209Z,4.62
2023-01-13T21:52:56.084Z,4.75
2023-01-13T21:55:26.957Z,4.78
2023-01-13T21:57:58.195Z,4.85
2023-01-13T22:00:27.750Z,4.84
2023-01-13T22:02:55.050Z,4.74
2023-01-13T22:05:24.388Z,4.71
2023-01-13T22:07:52.378Z,4.60
2023-01-13T22:10:25.075Z,4.67
2023-01-13T22:12:57.025Z,4.49
2023-01-13T22:15:29.230Z,4.43
2023-01-13T22:17:56.608Z,4.54
2023-01-13T22:20:23.608Z,4.55
2023-01-13T22:22:50.421Z,4.51
2023-01-13T22:25:19.961Z,4.62
2023-01-13T22:27:48.321Z,4.50
2023-01-13T22:30:18.968Z,4.53
2023-01-13T22:32:46.565Z,4.43
2023-01-13T22:35:15.241Z,4.49
2023-01-13T22:37:42.530Z,4.50
2023-01-13T22:40:12.179Z,4.42
2023-01-13T22:42:42.862Z,4.41
2023-01-13T22:45:12.358Z,4.43
2023-01-13T22:47:39.244Z,4.45
2023-01-13T22:50:07.555Z,4.42
2023-01-13T22:52:35.193Z,4.37
2023-01-13T22:55:02.132Z,4.39
2023-01-13T22:57:36.676Z,4.40
2023-01-13T23:00:14.940Z,4.37
2023-01-13T23:02:42.031Z,4.32
2023-01-13T23:05:08.991Z,4.29
2023-01-13T23:07:36.190Z,4.26
2023-01-13T23:10:04.068Z,4.26
2023-01-13T23:12:31.165Z,4.27
2023-01-13T23:14:57.951Z,4.15
2023-01-13T23:17:24.841Z,4.23
2023-01-13T23:19:51.643Z,4.20
2023-01-13T23:22:18.746Z,4.15
2023-01-13T23:24:46.015Z,4.04
2023-01-13T23:27:12.988Z,4.02
2023-01-13T23:29:39.792Z,4.05
2023-01-13T23:32:06.653Z,4.08
2023-01-13T23:34:33.493Z,4.10
2023-01-13T23:37:00.289Z,4.08
2023-01-13T23:39:27.083Z,4.13
2023-01-13T23:41:54.557Z,4.09
2023-01-13T23:44:21.375Z,4.04
2023-01-13T23:46:48.065Z,4.00
2023-01-13T23:49:14.836Z,3.96
2023-01-13T23:51:41.672Z,3.96
2023-01-13T23:54:08.406Z,3.93
2023-01-13T23:56:39.266Z,3.97
2023-01-13T23:59:06.706Z,3.92
